Terminal Aerodrome Forecast
Issued by NWS

Home | Current Version | Previous Version | Text Only | Print | Product List | Glossary On
Versions: 1 2 3 4 5 6 7 8 9 10 11 12 13 14 15 16 17 18 19 20 21 22 23 24 25 26 27 28 29 30 31 32 33 34 35 36 37 38 39
000
FTAK31 PANC 230104 AAB
TAFASD
TAF AMD
PASD 230104Z 2301/2324 13015G22KT 1SM -SN BLSN FEW005 OVC022
      TEMPO 2301/2304 1/2SM -SN BLSN SCT005 OVC015
     FM231100 16012KT 4SM -RASN OVC012
     FM231300 16006KT 6SM -RASN OVC015
     FM232000 16010G16KT 6SM -RA OVC015
      AMD LTD TO CLD VIS AND WIND=

USA.gov is the U.S. government's official web portal to all federal, state and local government web resources and services.